sensor_id;sensor_type;location;lat;lon;timestamp;temperature;humidity
79494;SHT31;68951;53.130;18.104;2023-07-29T18:36:36;19.57;77.51
79494;SHT31;68951;53.130;18.104;2023-07-29T18:39:03;19.59;77.34
79494;SHT31;68951;53.130;18.104;2023-07-29T18:41:32;19.68;77.24
79494;SHT31;68951;53.130;18.104;2023-07-29T18:43:59;19.70;77.02
79494;SHT31;68951;53.130;18.104;2023-07-29T18:46:26;19.69;76.86
79494;SHT31;68951;53.130;18.104;2023-07-29T18:48:54;19.67;76.75
79494;SHT31;68951;53.130;18.104;2023-07-29T18:51:21;19.65;76.64
79494;SHT31;68951;53.130;18.104;2023-07-29T18:53:48;19.64;76.60
79494;SHT31;68951;53.130;18.104;2023-07-29T18:56:15;19.63;76.58
79494;SHT31;68951;53.130;18.104;2023-07-29T18:58:42;19.59;76.57
79494;SHT31;68951;53.130;18.104;2023-07-29T19:01:09;19.55;76.60
79494;SHT31;68951;53.130;18.104;2023-07-29T19:03:36;19.41;76.62
79494;SHT31;68951;53.130;18.104;2023-07-29T19:06:03;19.31;76.68
79494;SHT31;68951;53.130;18.104;2023-07-29T19:08:31;19.36;76.77
79494;SHT31;68951;53.130;18.104;2023-07-29T19:10:58;19.44;76.80
79494;SHT31;68951;53.130;18.104;2023-07-29T19:13:25;19.49;76.80
79494;SHT31;68951;53.130;18.104;2023-07-29T19:15:52;19.51;76.79
79494;SHT31;68951;53.130;18.104;2023-07-29T19:18:23;19.53;76.80
79494;SHT31;68951;53.130;18.104;2023-07-29T19:20:52;19.56;76.80
79494;SHT31;68951;53.130;18.104;2023-07-29T19:23:20;19.58;76.80
79494;SHT31;68951;53.130;18.104;2023-07-29T19:25:47;19.59;76.80
79494;SHT31;68951;53.130;18.104;2023-07-29T19:28:15;19.57;76.80
79494;SHT31;68951;53.130;18.104;2023-07-29T19:30:44;19.54;76.80
79494;SHT31;68951;53.130;18.104;2023-07-29T19:33:11;19.52;76.85
79494;SHT31;68951;53.130;18.104;2023-07-29T19:35:38;19.47;76.88
79494;SHT31;68951;53.130;18.104;2023-07-29T19:38:05;19.43;76.90
79494;SHT31;68951;53.130;18.104;2023-07-29T19:40:32;19.39;76.90
79494;SHT31;68951;53.130;18.104;2023-07-29T19:43:03;19.42;76.91
79494;SHT31;68951;53.130;18.104;2023-07-29T19:45:30;19.40;76.90
79494;SHT31;68951;53.130;18.104;2023-07-29T19:47:57;19.33;76.92
79494;SHT31;68951;53.130;18.104;2023-07-29T19:50:24;19.28;76.97
79494;SHT31;68951;53.130;18.104;2023-07-29T19:52:51;19.29;77.03
79494;SHT31;68951;53.130;18.104;2023-07-29T19:55:17;19.30;77.10
79494;SHT31;68951;53.130;18.104;2023-07-29T19:57:44;19.28;77.17
79494;SHT31;68951;53.130;18.104;2023-07-29T20:00:11;19.34;77.20
79494;SHT31;68951;53.130;18.104;2023-07-29T20:02:40;19.36;77.20
79494;SHT31;68951;53.130;18.104;2023-07-29T20:05:07;19.35;77.20
79494;SHT31;68951;53.130;18.104;2023-07-29T20:07:35;19.29;77.23
79494;SHT31;68951;53.130;18.104;2023-07-29T20:10:02;19.23;77.29
79494;SHT31;68951;53.130;18.104;2023-07-29T20:12:29;19.21;77.34
79494;SHT31;68951;53.130;18.104;2023-07-29T20:17:46;19.17;77.40
79494;SHT31;68951;53.130;18.104;2023-07-29T20:20:13;19.13;77.40
79494;SHT31;68951;53.130;18.104;2023-07-29T20:22:40;19.09;77.43
79494;SHT31;68951;53.130;18.104;2023-07-29T20:25:07;19.04;77.51
79494;SHT31;68951;53.130;18.104;2023-07-29T20:27:34;19.03;77.57
79494;SHT31;68951;53.130;18.104;2023-07-29T20:30:01;19.00;77.60
79494;SHT31;68951;53.130;18.104;2023-07-29T20:32:29;19.00;77.67
79494;SHT31;68951;53.130;18.104;2023-07-29T20:34:56;19.03;77.70
79494;SHT31;68951;53.130;18.104;2023-07-29T20:37:23;19.05;77.71
79494;SHT31;68951;53.130;18.104;2023-07-29T20:39:50;19.04;77.72
79494;SHT31;68951;53.130;18.104;2023-07-29T20:42:17;19.03;77.79
79494;SHT31;68951;53.130;18.104;2023-07-29T20:44:44;19.04;77.80
79494;SHT31;68951;53.130;18.104;2023-07-29T20:47:10;19.02;77.83
79494;SHT31;68951;53.130;18.104;2023-07-29T20:49:37;18.98;77.90
79494;SHT31;68951;53.130;18.104;2023-07-29T20:52:04;18.94;77.90
79494;SHT31;68951;53.130;18.104;2023-07-29T20:54:32;18.90;77.91
79494;SHT31;68951;53.130;18.104;2023-07-29T20:56:58;18.84;77.99
79494;SHT31;68951;53.130;18.104;2023-07-29T20:59:25;18.82;78.02
79494;SHT31;68951;53.130;18.104;2023-07-29T21:01:52;18.80;78.10
79494;SHT31;68951;53.130;18.104;2023-07-29T21:04:19;18.73;78.11
79494;SHT31;68951;53.130;18.104;2023-07-29T21:06:46;18.70;78.22
79494;SHT31;68951;53.130;18.104;2023-07-29T21:09:13;18.67;78.30
79494;SHT31;68951;53.130;18.104;2023-07-29T21:11:40;18.64;78.37
79494;SHT31;68951;53.130;18.104;2023-07-29T21:14:07;18.60;78.44
79494;SHT31;68951;53.130;18.104;2023-07-29T21:16:34;18.53;78.56
79494;SHT31;68951;53.130;18.104;2023-07-29T21:19:01;18.49;78.67
79494;SHT31;68951;53.130;18.104;2023-07-29T21:21:27;18.45;78.82
79494;SHT31;68951;53.130;18.104;2023-07-29T21:23:54;18.46;78.90
79494;SHT31;68951;53.130;18.104;2023-07-29T21:26:22;18.44;78.93
79494;SHT31;68951;53.130;18.104;2023-07-29T21:28:49;18.40;79.02
79494;SHT31;68951;53.130;18.104;2023-07-29T21:31:15;18.39;79.10
79494;SHT31;68951;53.130;18.104;2023-07-29T21:33:42;18.37;79.17
79494;SHT31;68951;53.130;18.104;2023-07-29T21:36:09;18.42;79.20
79494;SHT31;68951;53.130;18.104;2023-07-29T21:38:35;18.41;79.24
79494;SHT31;68951;53.130;18.104;2023-07-29T21:41:02;18.47;79.23
79494;SHT31;68951;53.130;18.104;2023-07-29T21:43:29;18.50;79.20
79494;SHT31;68951;53.130;18.104;2023-07-29T21:45:56;18.56;79.19
79494;SHT31;68951;53.130;18.104;2023-07-29T21:48:23;18.54;79.10
79494;SHT31;68951;53.130;18.104;2023-07-29T21:50:52;18.47;79.10
79494;SHT31;68951;53.130;18.104;2023-07-29T21:53:21;18.40;79.11
79494;SHT31;68951;53.130;18.104;2023-07-29T21:55:47;18.42;79.17
79494;SHT31;68951;53.130;18.104;2023-07-29T21:58:14;18.42;79.14
79494;SHT31;68951;53.130;18.104;2023-07-29T22:00:41;18.42;79.12
79494;SHT31;68951;53.130;18.104;2023-07-29T22:03:08;18.42;79.12
79494;SHT31;68951;53.130;18.104;2023-07-29T22:05:35;18.39;79.13
79494;SHT31;68951;53.130;18.104;2023-07-29T22:08:02;18.38;79.18
79494;SHT31;68951;53.130;18.104;2023-07-29T22:10:29;18.34;79.24
79494;SHT31;68951;53.130;18.104;2023-07-29T22:12:56;18.33;79.29
79494;SHT31;68951;53.130;18.104;2023-07-29T22:15:22;18.27;79.38
79494;SHT31;68951;53.130;18.104;2023-07-29T22:17:49;18.28;79.50
79494;SHT31;68951;53.130;18.104;2023-07-29T22:20:16;18.26;79.60
79494;SHT31;68951;53.130;18.104;2023-07-29T22:22:43;18.27;79.69
79494;SHT31;68951;53.130;18.104;2023-07-29T22:25:10;18.28;79.76
79494;SHT31;68951;53.130;18.104;2023-07-29T22:27:36;18.30;79.83
79494;SHT31;68951;53.130;18.104;2023-07-29T22:30:03;18.22;79.94
79494;SHT31;68951;53.130;18.104;2023-07-29T22:32:31;18.18;80.02
79494;SHT31;68951;53.130;18.104;2023-07-29T22:34:58;18.14;80.14
79494;SHT31;68951;53.130;18.104;2023-07-29T22:37:24;18.18;80.19
79494;SHT31;68951;53.130;18.104;2023-07-29T22:39:51;18.19;80.27
79494;SHT31;68951;53.130;18.104;2023-07-29T22:42:18;18.15;80.31
79494;SHT31;68951;53.130;18.104;2023-07-29T22:44:45;18.16;80.39
79494;SHT31;68951;53.130;18.104;2023-07-29T22:47:12;18.16;80.42
79494;SHT31;68951;53.130;18.104;2023-07-29T22:49:38;18.15;80.49
79494;SHT31;68951;53.130;18.104;2023-07-29T22:52:05;18.21;80.50
79494;SHT31;68951;53.130;18.104;2023-07-29T22:54:33;18.27;80.50
79494;SHT31;68951;53.130;18.104;2023-07-29T22:56:59;18.25;80.50
79494;SHT31;68951;53.130;18.104;2023-07-29T22:59:26;18.25;80.50
79494;SHT31;68951;53.130;18.104;2023-07-29T23:01:53;18.24;80.50
79494;SHT31;68951;53.130;18.104;2023-07-29T23:04:20;18.24;80.52
79494;SHT31;68951;53.130;18.104;2023-07-29T23:06:47;18.24;80.59
79494;SHT31;68951;53.130;18.104;2023-07-29T23:09:13;18.26;80.60
79494;SHT31;68951;53.130;18.104;2023-07-29T23:11:40;18.28;80.61
79494;SHT31;68951;53.130;18.104;2023-07-29T23:14:07;18.25;80.64
79494;SHT31;68951;53.130;18.104;2023-07-29T23:16:34;18.24;80.69
79494;SHT31;68951;53.130;18.104;2023-07-29T23:19:00;18.29;80.70
79494;SHT31;68951;53.130;18.104;2023-07-29T23:21:27;18.33;80.70
79494;SHT31;68951;53.130;18.104;2023-07-29T23:23:54;18.34;80.69
79494;SHT31;68951;53.130;18.104;2023-07-29T23:26:21;18.36;80.69
79494;SHT31;68951;53.130;18.104;2023-07-29T23:28:47;18.35;80.70
79494;SHT31;68951;53.130;18.104;2023-07-29T23:31:14;18.38;80.70
79494;SHT31;68951;53.130;18.104;2023-07-29T23:33:41;18.39;80.70
79494;SHT31;68951;53.130;18.104;2023-07-29T23:36:07;18.44;80.70
79494;SHT31;68951;53.130;18.104;2023-07-29T23:38:34;18.45;80.70
79494;SHT31;68951;53.130;18.104;2023-07-29T23:41:01;18.46;80.70
79494;SHT31;68951;53.130;18.104;2023-07-29T23:43:28;18.50;80.69
79494;SHT31;68951;53.130;18.104;2023-07-29T23:45:55;18.53;80.62
79494;SHT31;68951;53.130;18.104;2023-07-29T23:48:21;18.55;80.60
79494;SHT31;68951;53.130;18.104;2023-07-29T23:50:48;18.48;80.60
79494;SHT31;68951;53.130;18.104;2023-07-29T23:53:15;18.33;80.60
79494;SHT31;68951;53.130;18.104;2023-07-29T23:55:42;18.24;80.63
79494;SHT31;68951;53.130;18.104;2023-07-29T23:58:08;18.21;80.70
